createdAt,value
2022-10-14T00:02:11.623Z,14.40
2022-10-14T00:04:38.793Z,14.40
2022-10-14T00:07:05.606Z,14.30
2022-10-14T00:09:32.459Z,14.40
2022-10-14T00:11:59.392Z,14.40
2022-10-14T00:14:26.237Z,14.40
2022-10-14T00:16:55.702Z,14.40
2022-10-14T00:19:22.628Z,14.50
2022-10-14T00:21:49.479Z,14.70
2022-10-14T00:24:17.427Z,14.50
2022-10-14T00:26:44.433Z,14.50
2022-10-14T00:29:18.594Z,14.50
2022-10-14T00:31:46.574Z,14.60
2022-10-14T00:34:16.178Z,14.60
2022-10-14T00:36:43.467Z,14.60
2022-10-14T00:39:10.781Z,14.60
2022-10-14T00:41:38.404Z,14.60
2022-10-14T00:44:07.430Z,14.60
2022-10-14T00:46:36.585Z,14.60
2022-10-14T00:49:09.175Z,14.60
2022-10-14T00:51:37.954Z,14.60
2022-10-14T00:54:05.323Z,14.70
2022-10-14T00:56:33.288Z,14.70
2022-10-14T00:59:02.512Z,14.70
2022-10-14T01:01:29.740Z,14.70
2022-10-14T01:03:56.682Z,14.70
2022-10-14T01:07:00.698Z,14.70
2022-10-14T01:09:46.937Z,14.60
2022-10-14T01:12:37.962Z,14.50
2022-10-14T01:15:27.612Z,14.50
2022-10-14T01:18:03.279Z,14.50
2022-10-14T01:20:47.069Z,14.50
2022-10-14T01:23:42.007Z,14.50
2022-10-14T01:26:40.191Z,14.60
2022-10-14T01:29:25.539Z,14.50
2022-10-14T01:32:02.536Z,14.60
2022-10-14T01:34:38.158Z,14.80
2022-10-14T01:37:12.813Z,14.60
2022-10-14T01:39:45.621Z,14.60
2022-10-14T01:42:21.655Z,14.70
2022-10-14T01:44:54.923Z,14.70
2022-10-14T01:47:23.573Z,14.70
2022-10-14T01:49:57.740Z,14.70
2022-10-14T01:52:34.370Z,14.70
2022-10-14T01:55:05.580Z,14.70
2022-10-14T01:57:37.145Z,14.80
2022-10-14T02:00:05.630Z,14.70
2022-10-14T02:02:37.602Z,14.80
2022-10-14T02:05:26.715Z,14.70
2022-10-14T02:08:04.288Z,14.70
2022-10-14T02:10:40.509Z,14.60
2022-10-14T02:13:46.055Z,14.60
2022-10-14T02:16:31.342Z,14.50
2022-10-14T02:19:22.319Z,14.40
2022-10-14T02:22:04.079Z,14.40
2022-10-14T02:24:37.650Z,14.30
2022-10-14T02:27:08.963Z,14.30
2022-10-14T02:29:38.170Z,14.30
2022-10-14T02:32:08.098Z,14.30
2022-10-14T02:34:36.554Z,14.30
2022-10-14T02:37:04.899Z,14.30
2022-10-14T02:39:37.416Z,14.30
2022-10-14T02:42:05.282Z,14.30
2022-10-14T02:44:32.275Z,14.30
2022-10-14T02:46:59.162Z,14.30
2022-10-14T02:49:26.091Z,14.30
2022-10-14T02:51:53.058Z,14.40
2022-10-14T02:54:19.907Z,14.40
2022-10-14T02:56:46.703Z,14.40
2022-10-14T02:59:13.523Z,14.40
2022-10-14T03:01:40.528Z,14.40
2022-10-14T03:04:07.374Z,14.40
2022-10-14T03:06:34.217Z,14.40
2022-10-14T03:09:01.041Z,14.50
2022-10-14T03:11:27.848Z,14.50
2022-10-14T03:13:54.697Z,14.50
2022-10-14T03:16:21.526Z,14.50
2022-10-14T03:18:48.397Z,14.50
2022-10-14T03:21:15.340Z,14.60
2022-10-14T03:23:42.885Z,14.60
2022-10-14T03:26:13.824Z,14.60
2022-10-14T03:28:41.201Z,14.60
2022-10-14T03:31:08.518Z,14.60
2022-10-14T03:33:35.373Z,14.60
2022-10-14T03:36:02.295Z,14.60
2022-10-14T03:38:29.149Z,14.60
2022-10-14T03:40:55.981Z,14.60
2022-10-14T03:43:22.825Z,14.60
2022-10-14T03:45:49.686Z,14.70
2022-10-14T03:48:16.547Z,14.70
2022-10-14T03:50:43.427Z,14.70
2022-10-14T03:53:10.260Z,14.70
2022-10-14T03:55:37.353Z,14.70
2022-10-14T03:58:04.779Z,14.70
2022-10-14T04:00:31.929Z,14.80
2022-10-14T04:02:58.820Z,14.80
2022-10-14T04:05:25.752Z,14.80
2022-10-14T04:07:52.624Z,14.80
2022-10-14T04:10:19.481Z,14.80
2022-10-14T04:12:46.282Z,14.80
2022-10-14T04:15:13.314Z,14.90
2022-10-14T04:17:40.202Z,14.90
2022-10-14T04:20:07.369Z,14.90
2022-10-14T04:22:34.288Z,14.90
2022-10-14T04:25:01.122Z,15.00
2022-10-14T04:27:27.994Z,14.90
2022-10-14T04:29:55.031Z,15.00
2022-10-14T04:32:22.110Z,15.00
2022-10-14T04:34:49.126Z,15.00
2022-10-14T04:37:16.131Z,15.00
2022-10-14T04:39:43.222Z,15.00
2022-10-14T04:42:10.307Z,15.00
2022-10-14T04:44:37.159Z,15.00
2022-10-14T04:47:04.864Z,15.10
2022-10-14T04:49:31.717Z,15.10
2022-10-14T04:51:58.546Z,15.10
2022-10-14T04:54:25.587Z,15.10
2022-10-14T04:56:52.497Z,15.10
2022-10-14T04:59:19.376Z,15.10
2022-10-14T05:01:46.365Z,15.10
2022-10-14T05:04:13.373Z,15.10
2022-10-14T05:06:40.659Z,15.20
2022-10-14T05:09:07.536Z,15.10
2022-10-14T05:11:34.431Z,15.20
2022-10-14T05:14:01.323Z,15.20
2022-10-14T05:16:28.339Z,15.20
2022-10-14T05:18:55.275Z,15.20
2022-10-14T05:21:22.255Z,15.20
2022-10-14T05:23:49.286Z,15.20
2022-10-14T05:26:16.344Z,15.30
2022-10-14T05:28:43.252Z,15.30
2022-10-14T05:31:10.783Z,15.30
2022-10-14T05:33:37.839Z,15.30
2022-10-14T05:36:04.977Z,15.30
2022-10-14T05:38:33.823Z,15.30
2022-10-14T05:41:00.967Z,15.30
2022-10-14T05:43:32.185Z,15.30
2022-10-14T05:46:00.439Z,15.30
2022-10-14T05:48:27.659Z,15.30
2022-10-14T05:50:54.623Z,15.40
2022-10-14T05:53:21.456Z,15.40
2022-10-14T05:55:48.491Z,15.40
2022-10-14T05:58:15.367Z,15.40
2022-10-14T06:00:42.187Z,15.40
2022-10-14T06:03:11.745Z,15.50
2022-10-14T06:05:38.658Z,15.50
2022-10-14T06:08:05.838Z,15.50
2022-10-14T06:10:32.899Z,15.50
2022-10-14T06:12:59.779Z,15.50
2022-10-14T06:15:28.326Z,15.50
2022-10-14T06:17:55.348Z,15.50
2022-10-14T06:20:22.225Z,15.50
2022-10-14T06:22:49.162Z,15.50
2022-10-14T06:25:16.019Z,15.50
2022-10-14T06:27:42.981Z,15.50
2022-10-14T06:30:10.625Z,15.60
2022-10-14T06:32:37.629Z,15.60
2022-10-14T06:35:04.811Z,15.60
2022-10-14T06:37:31.766Z,15.70
2022-10-14T06:39:58.672Z,15.70
2022-10-14T06:42:25.812Z,15.70
2022-10-14T06:44:52.869Z,15.70
2022-10-14T06:47:19.721Z,15.70
2022-10-14T06:49:46.573Z,15.80
2022-10-14T06:52:13.398Z,15.90
2022-10-14T06:54:42.569Z,16.00
2022-10-14T06:57:11.567Z,16.00
2022-10-14T06:59:39.077Z,16.20
2022-10-14T07:02:06.143Z,16.40
2022-10-14T07:04:33.402Z,16.50
2022-10-14T07:07:00.302Z,16.70
2022-10-14T07:09:38.211Z,16.90
2022-10-14T07:12:05.113Z,17.00
2022-10-14T07:14:31.968Z,17.20
2022-10-14T07:16:58.875Z,17.30
2022-10-14T07:19:25.953Z,17.40
2022-10-14T07:21:52.824Z,17.50
2022-10-14T07:24:19.727Z,17.60
2022-10-14T07:26:46.673Z,17.70
2022-10-14T07:29:13.525Z,17.70
2022-10-14T07:31:40.496Z,17.80
2022-10-14T07:34:07.414Z,17.90
2022-10-14T07:36:34.474Z,17.90
2022-10-14T07:39:01.471Z,17.80
2022-10-14T07:41:28.691Z,17.70
2022-10-14T07:44:02.024Z,17.60
2022-10-14T07:46:32.246Z,17.60
2022-10-14T07:49:26.949Z,17.50
2022-10-14T07:51:53.807Z,17.40
2022-10-14T07:54:26.391Z,17.40
2022-10-14T07:56:53.241Z,17.40
2022-10-14T07:59:21.162Z,17.40
2022-10-14T08:01:49.761Z,17.40
2022-10-14T08:04:16.791Z,17.40
2022-10-14T08:06:43.915Z,17.50
2022-10-14T08:09:12.342Z,17.50
2022-10-14T08:11:39.643Z,17.60
2022-10-14T08:14:07.082Z,17.60
2022-10-14T08:16:35.707Z,17.60
2022-10-14T08:19:13.777Z,17.70
2022-10-14T08:21:43.143Z,17.70
2022-10-14T08:24:10.826Z,17.70
2022-10-14T08:26:39.930Z,17.80
2022-10-14T08:29:12.888Z,17.90
2022-10-14T08:31:39.927Z,18.00
2022-10-14T08:34:07.011Z,18.10
2022-10-14T08:36:34.096Z,18.30
2022-10-14T08:39:01.064Z,18.50
2022-10-14T08:41:52.684Z,18.70
2022-10-14T08:44:23.120Z,19.00
2022-10-14T08:46:58.165Z,19.30
2022-10-14T08:49:49.915Z,19.40
2022-10-14T08:52:48.141Z,19.40
2022-10-14T08:55:21.994Z,19.40
2022-10-14T08:57:53.988Z,19.30
2022-10-14T09:00:21.855Z,19.20
2022-10-14T09:02:51.379Z,19.30
2022-10-14T09:05:25.116Z,19.30
2022-10-14T09:07:55.047Z,19.40
2022-10-14T09:10:41.793Z,19.60
2022-10-14T09:13:19.360Z,19.70
2022-10-14T09:15:50.210Z,19.80
2022-10-14T09:18:38.290Z,20.00
2022-10-14T09:24:31.378Z,20.30
2022-10-14T09:27:14.340Z,20.20
2022-10-14T09:29:54.185Z,20.40
2022-10-14T09:32:26.909Z,20.40
2022-10-14T09:34:55.261Z,20.30
2022-10-14T09:37:36.451Z,20.30
2022-10-14T09:40:09.756Z,20.20
2022-10-14T09:42:36.974Z,20.20
2022-10-14T09:45:16.040Z,20.10
2022-10-14T09:48:03.757Z,20.10
2022-10-14T09:50:41.155Z,20.10
2022-10-14T09:53:29.691Z,20.20
2022-10-14T09:56:08.363Z,20.40
2022-10-14T09:58:55.086Z,20.40
2022-10-14T10:01:23.747Z,20.60
2022-10-14T10:03:52.293Z,20.60
2022-10-14T10:06:25.841Z,20.80
2022-10-14T10:09:00.004Z,20.90
2022-10-14T10:11:33.512Z,20.90
2022-10-14T10:14:22.967Z,20.90
2022-10-14T10:17:10.959Z,20.80
2022-10-14T10:19:40.369Z,20.80
2022-10-14T10:24:47.102Z,20.70
2022-10-14T10:27:41.627Z,20.70
2022-10-14T10:30:17.798Z,20.70
2022-10-14T10:33:15.373Z,20.70
2022-10-14T10:36:11.102Z,20.90
2022-10-14T10:38:49.672Z,21.10
2022-10-14T10:41:41.628Z,21.00
2022-10-14T10:44:25.803Z,20.90
2022-10-14T10:47:02.414Z,20.80
2022-10-14T10:49:54.194Z,20.70
2022-10-14T10:53:07.673Z,20.60
2022-10-14T10:56:15.721Z,20.50
2022-10-14T10:58:48.981Z,20.50
2022-10-14T11:01:27.956Z,20.40
2022-10-14T11:04:19.188Z,20.40
2022-10-14T11:07:16.703Z,20.40
2022-10-14T11:10:09.617Z,20.30
2022-10-14T11:12:39.453Z,20.20
2022-10-14T11:15:09.378Z,20.10
2022-10-14T11:17:42.073Z,20.10
2022-10-14T11:20:14.894Z,20.10
2022-10-14T11:23:04.723Z,20.10
2022-10-14T11:25:49.422Z,20.10
2022-10-14T11:28:30.641Z,20.20
2022-10-14T11:31:36.954Z,20.30
2022-10-14T11:34:42.280Z,20.30
2022-10-14T11:37:26.643Z,20.40
2022-10-14T11:40:08.544Z,20.30
2022-10-14T11:42:53.494Z,20.40
2022-10-14T11:45:42.579Z,20.40
2022-10-14T11:48:23.469Z,20.40
2022-10-14T11:50:57.233Z,20.50
2022-10-14T11:53:39.203Z,20.50
2022-10-14T11:56:20.924Z,20.60
2022-10-14T11:58:51.930Z,20.70
2022-10-14T12:01:22.576Z,20.80
2022-10-14T12:04:00.319Z,20.90
2022-10-14T12:06:43.540Z,20.90
2022-10-14T12:09:25.242Z,20.80
2022-10-14T12:12:19.982Z,20.80
2022-10-14T12:14:51.543Z,20.70
2022-10-14T12:17:40.642Z,20.60
2022-10-14T12:20:34.488Z,20.60
2022-10-14T12:23:03.319Z,20.50
2022-10-14T12:25:41.301Z,20.50
2022-10-14T12:28:12.807Z,20.60
2022-10-14T12:30:41.755Z,20.60
2022-10-14T12:33:14.074Z,20.70
2022-10-14T12:36:02.007Z,20.90
2022-10-14T12:38:30.863Z,21.00
2022-10-14T12:41:36.116Z,21.20
2022-10-14T12:44:14.215Z,21.40
2022-10-14T12:46:45.852Z,21.50
2022-10-14T12:49:30.157Z,21.60
2022-10-14T12:52:01.496Z,21.80
2022-10-14T12:54:30.365Z,21.90
2022-10-14T12:57:06.608Z,21.90
2022-10-14T12:59:37.879Z,21.90
2022-10-14T13:02:35.908Z,21.90
2022-10-14T13:05:08.624Z,21.90
2022-10-14T13:07:42.820Z,21.80
2022-10-14T13:10:46.930Z,21.80
2022-10-14T13:13:44.822Z,21.70
2022-10-14T13:16:31.775Z,21.60
2022-10-14T13:18:59.771Z,21.40
2022-10-14T13:21:36.924Z,21.20
2022-10-14T13:24:26.879Z,21.10
2022-10-14T13:26:53.965Z,21.00
2022-10-14T13:29:20.914Z,21.00
2022-10-14T13:32:12.550Z,20.90
2022-10-14T13:34:57.695Z,20.90
2022-10-14T13:37:34.653Z,20.90
2022-10-14T13:40:31.651Z,20.90
2022-10-14T13:43:01.169Z,20.90
2022-10-14T13:45:42.440Z,20.80
2022-10-14T13:48:18.029Z,20.80
2022-10-14T13:50:49.906Z,20.70
2022-10-14T13:53:20.698Z,20.60
2022-10-14T13:55:54.418Z,20.50
2022-10-14T13:58:23.473Z,20.50
2022-10-14T14:00:59.307Z,20.60
2022-10-14T14:03:29.635Z,20.60
2022-10-14T14:05:57.609Z,20.60
2022-10-14T14:08:42.190Z,20.60
2022-10-14T14:11:20.623Z,20.70
2022-10-14T14:14:00.747Z,20.70
2022-10-14T14:16:40.723Z,20.70
2022-10-14T14:19:37.904Z,20.60
2022-10-14T14:22:18.125Z,20.50
2022-10-14T14:24:46.213Z,20.00
2022-10-14T14:27:15.141Z,20.40
2022-10-14T14:29:47.966Z,20.30
2022-10-14T14:32:23.332Z,20.30
2022-10-14T14:34:51.167Z,20.20
2022-10-14T14:37:53.349Z,20.20
2022-10-14T14:40:26.542Z,20.20
2022-10-14T14:42:59.920Z,20.10
2022-10-14T14:45:33.916Z,20.00
2022-10-14T14:48:06.801Z,19.90
2022-10-14T14:50:44.768Z,19.90
2022-10-14T14:53:19.809Z,19.80
2022-10-14T14:55:55.862Z,19.70
2022-10-14T14:58:47.200Z,19.70
2022-10-14T15:01:22.100Z,19.60
2022-10-14T15:04:12.230Z,19.60
2022-10-14T15:06:39.218Z,19.60
2022-10-14T15:09:30.344Z,19.50
2022-10-14T15:12:00.581Z,19.50
2022-10-14T15:14:30.634Z,19.40
2022-10-14T15:16:57.628Z,19.40
2022-10-14T15:19:38.095Z,19.40
2022-10-14T15:22:26.975Z,19.30
2022-10-14T15:25:25.713Z,19.30
2022-10-14T15:27:54.864Z,19.30
2022-10-14T15:30:40.210Z,19.30
2022-10-14T15:33:22.187Z,19.30
2022-10-14T15:36:02.864Z,19.30
2022-10-14T15:40:57.285Z,19.30
2022-10-14T15:43:26.492Z,19.30
2022-10-14T15:46:17.493Z,19.30
2022-10-14T15:48:50.757Z,19.30
2022-10-14T15:51:19.716Z,19.30
2022-10-14T15:53:47.241Z,19.20
2022-10-14T15:56:14.509Z,19.20
2022-10-14T15:58:41.688Z,19.10
2022-10-14T16:01:15.358Z,19.10
2022-10-14T16:03:42.908Z,19.10
2022-10-14T16:06:10.100Z,19.00
2022-10-14T16:08:39.653Z,19.00
2022-10-14T16:11:06.639Z,19.00
2022-10-14T16:13:33.556Z,19.00
2022-10-14T16:16:03.632Z,19.00
2022-10-14T16:18:30.560Z,18.90
2022-10-14T16:20:57.446Z,18.90
2022-10-14T16:23:30.984Z,18.90
2022-10-14T16:26:00.276Z,18.90
2022-10-14T16:28:27.299Z,18.80
2022-10-14T16:30:54.292Z,18.80
2022-10-14T16:33:22.019Z,18.80
2022-10-14T16:35:54.535Z,18.70
2022-10-14T16:38:22.253Z,18.70
2022-10-14T16:40:57.972Z,18.60
2022-10-14T16:43:25.808Z,18.60
2022-10-14T16:45:53.253Z,18.60
2022-10-14T16:48:20.103Z,18.50
2022-10-14T16:50:51.230Z,18.60
2022-10-14T16:53:37.283Z,18.50
2022-10-14T16:56:25.054Z,18.60
2022-10-14T16:58:51.924Z,18.50
2022-10-14T17:01:18.910Z,18.50
2022-10-14T17:03:45.891Z,18.50
2022-10-14T17:06:12.858Z,18.50
2022-10-14T17:08:43.914Z,18.50
2022-10-14T17:11:11.518Z,18.50
2022-10-14T17:13:43.850Z,18.50
2022-10-14T17:16:10.937Z,18.50
2022-10-14T17:18:37.868Z,18.50
2022-10-14T17:21:07.252Z,18.40
2022-10-14T17:23:41.295Z,18.40
2022-10-14T17:26:13.580Z,18.40
2022-10-14T17:28:41.680Z,18.30
2022-10-14T17:31:11.297Z,18.30
2022-10-14T17:33:39.595Z,18.30
2022-10-14T17:36:07.669Z,18.30
2022-10-14T17:38:36.108Z,18.30
2022-10-14T17:41:08.868Z,18.20
2022-10-14T17:43:36.825Z,18.20
2022-10-14T17:46:11.702Z,18.20
2022-10-14T17:48:42.928Z,18.20
2022-10-14T17:51:11.217Z,18.20
2022-10-14T17:53:39.049Z,18.20
2022-10-14T17:56:08.309Z,18.20
2022-10-14T17:58:35.316Z,18.20
2022-10-14T18:01:16.197Z,18.20
2022-10-14T18:03:44.546Z,18.20
2022-10-14T18:06:17.528Z,18.10
2022-10-14T18:08:48.537Z,18.10
2022-10-14T18:11:16.478Z,18.10
2022-10-14T18:13:43.418Z,18.10
2022-10-14T18:16:14.345Z,18.10
2022-10-14T18:18:42.039Z,18.00
2022-10-14T18:21:10.441Z,18.00
2022-10-14T18:23:39.603Z,18.00
2022-10-14T18:26:13.286Z,18.00
2022-10-14T18:28:46.585Z,18.00
2022-10-14T18:31:15.302Z,18.00
2022-10-14T18:33:43.223Z,18.00
2022-10-14T18:36:12.954Z,18.00
2022-10-14T18:38:40.391Z,17.90
2022-10-14T18:41:12.854Z,17.70
2022-10-14T18:43:41.394Z,17.60
2022-10-14T18:46:16.062Z,17.40
2022-10-14T18:48:45.244Z,17.20
2022-10-14T18:51:12.701Z,17.10
2022-10-14T18:53:41.800Z,17.10
2022-10-14T18:56:17.673Z,17.00
2022-10-14T18:58:47.726Z,17.00
2022-10-14T19:01:16.679Z,16.90
2022-10-14T19:03:44.738Z,16.90
2022-10-14T19:06:13.189Z,16.80
2022-10-14T19:08:42.050Z,16.80
2022-10-14T19:11:20.695Z,16.70
2022-10-14T19:13:53.052Z,16.60
2022-10-14T19:25:27.710Z,16.40
2022-10-14T19:27:54.902Z,16.30
2022-10-14T19:30:22.174Z,16.30
2022-10-14T19:42:03.256Z,16.10
2022-10-14T20:02:39.633Z,15.70
2022-10-14T20:05:07.099Z,15.90
2022-10-14T20:07:34.232Z,15.90
2022-10-14T20:10:02.959Z,15.90
2022-10-14T20:12:34.457Z,15.90
2022-10-14T20:15:01.656Z,15.90
2022-10-14T20:17:28.684Z,15.90
2022-10-14T20:19:55.911Z,15.90
2022-10-14T20:22:23.282Z,15.90
2022-10-14T20:24:50.473Z,15.80
2022-10-14T20:27:17.930Z,15.80
2022-10-14T20:29:44.825Z,15.80
2022-10-14T20:32:11.867Z,15.80
2022-10-14T20:34:38.725Z,15.80
2022-10-14T20:37:05.630Z,15.80
2022-10-14T20:39:32.597Z,15.80
2022-10-14T20:41:59.428Z,15.80
2022-10-14T20:44:26.409Z,15.80
2022-10-14T20:46:53.301Z,15.80
2022-10-14T20:49:20.134Z,15.80
2022-10-14T20:51:46.919Z,15.80
2022-10-14T20:54:13.788Z,15.80
2022-10-14T20:56:40.592Z,15.80
2022-10-14T20:59:08.675Z,15.80
2022-10-14T21:01:36.777Z,15.90
2022-10-14T21:04:07.102Z,15.90
2022-10-14T21:06:34.927Z,15.90
2022-10-14T21:09:01.919Z,15.90
2022-10-14T21:11:28.858Z,15.90
2022-10-14T21:13:58.097Z,15.90
2022-10-14T21:16:28.452Z,16.00
2022-10-14T21:19:06.552Z,15.90
2022-10-14T21:21:43.046Z,15.90
2022-10-14T21:24:13.235Z,15.90
2022-10-14T21:26:40.057Z,15.90
2022-10-14T21:29:06.923Z,15.90
2022-10-14T21:31:33.858Z,15.90
2022-10-14T21:34:05.688Z,15.90
2022-10-14T21:36:34.685Z,15.90
2022-10-14T21:39:09.666Z,15.90
2022-10-14T21:41:37.224Z,15.90
2022-10-14T21:44:05.143Z,15.80
2022-10-14T21:46:35.238Z,15.80
2022-10-14T21:49:02.201Z,15.90
2022-10-14T21:51:30.873Z,15.90
2022-10-14T21:53:58.450Z,15.80
2022-10-14T21:56:26.273Z,15.80
2022-10-14T21:58:53.636Z,15.90
2022-10-14T22:01:29.735Z,15.90
2022-10-14T22:03:58.378Z,15.80
2022-10-14T22:06:25.445Z,15.90
2022-10-14T22:08:55.429Z,16.10
2022-10-14T22:11:30.879Z,15.90
2022-10-14T22:14:00.593Z,15.90
2022-10-14T22:16:29.134Z,15.90
2022-10-14T22:18:59.338Z,16.00
2022-10-14T22:21:27.773Z,16.00
2022-10-14T22:23:54.939Z,16.00
2022-10-14T22:26:23.500Z,16.00
2022-10-14T22:28:57.616Z,16.20
2022-10-14T22:31:25.145Z,16.00
2022-10-14T22:33:52.087Z,16.00
2022-10-14T22:36:24.014Z,16.10
2022-10-14T22:38:53.197Z,16.10
2022-10-14T22:41:21.907Z,16.10
2022-10-14T22:43:51.281Z,16.10
2022-10-14T22:46:20.472Z,16.10
2022-10-14T22:48:48.507Z,16.20
2022-10-14T22:51:18.081Z,16.20
2022-10-14T22:53:45.962Z,16.10
2022-10-14T22:56:16.106Z,16.10
2022-10-14T22:58:43.074Z,16.00
2022-10-14T23:01:15.570Z,16.00
2022-10-14T23:03:42.813Z,15.90
2022-10-14T23:06:12.370Z,15.90
2022-10-14T23:08:40.189Z,15.90
2022-10-14T23:11:08.166Z,15.90
2022-10-14T23:13:35.110Z,15.90
2022-10-14T23:16:06.869Z,15.80
2022-10-14T23:18:36.375Z,15.80
2022-10-14T23:21:14.722Z,15.80
2022-10-14T23:23:42.327Z,15.80
2022-10-14T23:26:10.774Z,15.80
2022-10-14T23:28:37.801Z,15.80
2022-10-14T23:31:13.305Z,15.80
2022-10-14T23:33:40.845Z,15.80
2022-10-14T23:36:10.573Z,15.80
2022-10-14T23:38:38.376Z,15.80
2022-10-14T23:41:06.525Z,15.80
2022-10-14T23:43:33.801Z,15.70
2022-10-14T23:46:07.005Z,15.70
2022-10-14T23:48:34.465Z,15.70
2022-10-14T23:51:01.534Z,15.70
2022-10-14T23:53:28.727Z,15.60
2022-10-14T23:55:56.721Z,15.60
2022-10-14T23:58:25.005Z,15.60
